Time;durP1;ratioP1;P1;durP2;ratioP2;P2;SDS_P1;SDS_P2;PMS_P1;PMS_P2;Temp;Humidity;BMP_temperature;BMP_pressure;BME280_temperature;BME280_humidity;BME280_pressure;Samples;Min_cycle;Max_cycle;Signal;HPM_P1;HPM_P2
2021/04/16 00:00:44;;;;;;;0.10;0.10;;;;;;;5.34;47.02;101902.22;4824490;29;20358;-76
2021/04/16 00:03:14;;;;;;;0.28;0.10;;;;;;;5.28;47.76;101897.56;4816431;29;20032;-76
2021/04/16 00:05:40;;;;;;;0.00;0.00;;;;;;;5.27;47.39;101900.47;4825454;29;20034;-77
2021/04/16 00:08:14;;;;;;;0.10;0.10;;;;;;;5.22;47.17;101895.66;4840083;29;20030;-77
2021/04/16 00:10:45;;;;;;;0.73;0.28;;;;;;;5.20;47.57;101890.41;4835418;29;20045;-75
2021/04/16 00:13:17;;;;;;;0.20;0.15;;;;;;;5.16;48.15;101894.56;4838661;29;20021;-77
2021/04/16 00:15:44;;;;;;;0.15;0.13;;;;;;;5.13;48.02;101897.66;4817806;29;20038;-75
2021/04/16 00:18:12;;;;;;;0.13;0.13;;;;;;;5.10;48.52;101895.34;4826634;29;20026;-77
2021/04/16 00:20:42;;;;;;;0.30;0.30;;;;;;;5.00;48.65;101887.50;4837197;29;20066;-78
2021/04/16 00:23:15;;;;;;;0.35;0.30;;;;;;;4.95;48.64;101876.41;4847512;29;20030;-76
2021/04/16 00:25:43;;;;;;;0.10;0.00;;;;;;;4.94;49.10;101874.72;4838044;29;20109;-76
2021/04/16 00:28:10;;;;;;;0.63;0.10;;;;;;;4.84;48.98;101857.94;4829319;29;20067;-79
2021/04/16 00:30:42;;;;;;;0.22;0.10;;;;;;;4.94;48.55;101869.31;4821932;29;20026;-76
2021/04/16 00:33:12;;;;;;;0.20;0.15;;;;;;;4.81;49.58;101853.75;4818923;29;20026;-77
2021/04/16 00:35:45;;;;;;;0.10;0.10;;;;;;;4.85;49.05;101865.88;4829659;29;20497;-76
2021/04/16 00:38:17;;;;;;;0.60;0.22;;;;;;;4.84;49.95;101863.38;4828009;29;20496;-78
2021/04/16 00:41:05;;;;;;;0.30;0.20;;;;;;;4.64;49.28;101836.88;4848846;29;20033;-77
2021/04/16 00:43:33;;;;;;;0.30;0.30;;;;;;;4.78;50.18;101862.25;4849826;29;20030;-78
2021/04/16 00:46:11;;;;;;;0.30;0.28;;;;;;;4.84;49.86;101871.50;4849741;29;20060;-77
2021/04/16 00:48:53;;;;;;;;;;;;;;;;;;;;;
2021/04/16 00:51:32;;;;;;;2.17;0.17;;;;;;;4.70;50.24;101857.81;4846363;29;20094;-77
2021/04/16 00:54:02;;;;;;;0.30;0.20;;;;;;;4.70;50.94;101865.94;4848092;29;20029;-76
2021/04/16 00:56:32;;;;;;;2.28;0.20;;;;;;;4.62;50.31;101855.22;4844554;29;20046;-77
2021/04/16 00:59:00;;;;;;;0.70;0.30;;;;;;;4.58;50.71;101848.47;4818959;29;20142;-76
2021/04/16 01:01:28;;;;;;;4.13;1.00;;;;;;;4.57;51.11;101852.25;4850372;29;20388;-76
2021/04/16 01:03:55;;;;;;;0.10;0.10;;;;;;;4.59;50.44;101854.75;4850649;29;20089;-79
2021/04/16 01:06:22;;;;;;;0.10;0.10;;;;;;;4.52;51.15;101843.84;4847302;29;20025;-78
2021/04/16 01:08:53;;;;;;;0.25;0.10;;;;;;;4.48;51.49;101842.53;4820260;29;20039;-76
2021/04/16 01:11:24;;;;;;;0.70;0.20;;;;;;;4.53;51.18;101864.50;4824006;29;20482;-76
2021/04/16 01:13:56;;;;;;;0.32;0.20;;;;;;;4.30;50.99;101830.25;4838286;29;20022;-76
2021/04/16 01:16:28;;;;;;;0.10;0.08;;;;;;;4.47;50.96;101865.25;4832202;29;20033;-75
2021/04/16 01:18:55;;;;;;;0.55;0.20;;;;;;;4.44;51.69;101862.91;4842063;29;20083;-75
2021/04/16 01:21:29;;;;;;;0.95;0.20;;;;;;;4.32;51.29;101847.16;4849540;29;20049;-75
2021/04/16 01:24:07;;;;;;;0.10;0.10;;;;;;;4.36;51.44;101866.56;4837867;29;20042;-77
2021/04/16 01:26:38;;;;;;;0.20;0.20;;;;;;;4.34;52.10;101869.47;4844545;29;20034;-77
2021/04/16 01:29:05;;;;;;;0.32;0.30;;;;;;;4.31;51.47;101869.03;4838357;29;20036;-75
2021/04/16 01:31:30;;;;;;;0.10;0.10;;;;;;;4.21;52.00;101857.66;4822426;29;20034;-77
2021/04/16 01:33:56;;;;;;;0.10;0.10;;;;;;;4.22;51.51;101859.31;4826924;29;20034;-75
2021/04/16 01:36:26;;;;;;;0.00;0.00;;;;;;;4.15;51.60;101856.53;4829648;29;20125;-76
2021/04/16 01:38:54;;;;;;;0.20;0.10;;;;;;;4.10;51.97;101850.81;4825169;29;20029;-78
2021/04/16 01:41:20;;;;;;;2.47;0.10;;;;;;;4.18;51.42;101864.28;4815774;29;20049;-78
2021/04/16 01:44:16;;;;;;;0.20;0.15;;;;;;;4.09;51.69;101849.13;4819676;29;20026;-76
2021/04/16 01:46:58;;;;;;;0.30;0.28;;;;;;;4.15;51.72;101853.81;4826699;29;20025;-76
2021/04/16 01:49:29;;;;;;;0.45;0.22;;;;;;;4.11;52.18;101855.22;4838599;29;20538;-76
2021/04/16 01:51:56;;;;;;;0.20;0.20;;;;;;;4.07;52.21;101853.91;4841052;29;20507;-78
2021/04/16 01:54:50;;;;;;;0.20;0.20;;;;;;;4.06;53.26;101854.94;4843433;29;20378;-77
2021/04/16 01:57:45;;;;;;;0.20;0.20;;;;;;;4.04;52.32;101865.94;4843412;29;20474;-77
2021/04/16 02:00:15;;;;;;;0.50;0.20;;;;;;;3.98;53.22;101854.00;4847297;29;20086;-77
2021/04/16 02:02:50;;;;;;;0.20;0.20;;;;;;;3.98;52.85;101853.16;4834485;29;20061;-75
2021/04/16 02:05:16;;;;;;;0.55;0.32;;;;;;;3.94;53.45;101852.72;4832184;29;20026;-75
2021/04/16 02:07:45;;;;;;;0.35;0.35;;;;;;;3.98;53.26;101856.69;4838859;29;20470;-76
2021/04/16 02:10:12;;;;;;;0.50;0.40;;;;;;;3.98;53.73;101859.41;4839810;29;20037;-77
2021/04/16 02:12:40;;;;;;;1.35;0.30;;;;;;;3.89;54.37;101854.28;4833041;29;20042;-77
2021/04/16 02:15:06;;;;;;;0.30;0.30;;;;;;;3.93;53.75;101856.44;4824599;29;20038;-77
2021/04/16 02:17:32;;;;;;;1.08;0.20;;;;;;;3.85;53.76;101848.41;4839616;29;20114;-76
2021/04/16 02:19:59;;;;;;;0.30;0.20;;;;;;;3.77;54.34;101843.09;4839683;29;20033;-75
2021/04/16 02:22:31;;;;;;;0.30;0.20;;;;;;;3.85;53.48;101853.81;4843057;29;20090;-76
2021/04/16 02:24:56;;;;;;;0.10;0.10;;;;;;;3.74;54.28;101846.16;4834340;29;20038;-74
2021/04/16 02:27:28;;;;;;;0.52;0.30;;;;;;;3.76;53.83;101854.94;4825167;29;20093;-77
2021/04/16 02:29:57;;;;;;;0.08;0.08;;;;;;;3.66;54.14;101844.38;4841049;29;20041;-76
2021/04/16 02:32:22;;;;;;;0.32;0.30;;;;;;;3.61;54.15;101842.22;4833213;29;20038;-74
2021/04/16 02:34:48;;;;;;;0.20;0.20;;;;;;;3.65;54.54;101846.25;4838155;29;20041;-76
2021/04/16 02:37:17;;;;;;;0.08;0.08;;;;;;;3.58;54.46;101845.31;4821015;29;20059;-77
2021/04/16 02:39:43;;;;;;;0.03;0.03;;;;;;;3.57;54.28;101854.44;4824888;29;20033;-75
2021/04/16 02:42:09;;;;;;;0.10;0.10;;;;;;;3.55;54.24;101850.22;4840811;29;20112;-76
2021/04/16 02:44:35;;;;;;;0.10;0.10;;;;;;;3.52;55.10;101854.16;4822801;29;20101;-76
2021/04/16 02:47:01;;;;;;;0.30;0.10;;;;;;;3.46;54.36;101849.47;4820107;29;20125;-74
2021/04/16 02:49:27;;;;;;;0.20;0.20;;;;;;;3.45;55.12;101848.66;4814567;29;20041;-75
2021/04/16 02:51:53;;;;;;;0.10;0.10;;;;;;;3.38;54.61;101847.69;4838231;29;20028;-75
2021/04/16 02:54:19;;;;;;;2.20;0.20;;;;;;;3.36;54.67;101848.91;4833509;29;20117;-76
2021/04/16 02:56:45;;;;;;;0.20;0.20;;;;;;;3.31;54.71;101841.34;4819322;29;20207;-77
2021/04/16 02:59:14;;;;;;;0.10;0.10;;;;;;;3.32;55.08;101854.66;4842370;29;20026;-77
2021/04/16 03:01:39;;;;;;;0.30;0.30;;;;;;;3.27;55.12;101849.00;4843142;29;20492;-75
2021/04/16 03:04:05;;;;;;;0.40;0.20;;;;;;;3.20;55.47;101845.34;4848288;29;20117;-76
2021/04/16 03:06:31;;;;;;;0.10;0.10;;;;;;;3.24;55.62;101854.75;4835957;29;20034;-76
2021/04/16 03:08:59;;;;;;;0.40;0.30;;;;;;;3.20;55.78;101855.28;4843208;29;20112;-75
2021/04/16 03:11:28;;;;;;;0.10;0.10;;;;;;;3.20;56.37;101858.84;4838807;29;20033;-76
2021/04/16 03:13:55;;;;;;;0.25;0.25;;;;;;;3.19;55.95;101849.06;4843208;29;20033;-76
2021/04/16 03:16:25;;;;;;;3.15;0.68;;;;;;;3.17;57.15;101853.81;4820210;29;20033;-76
2021/04/16 03:18:59;;;;;;;2.10;0.52;;;;;;;3.04;56.93;101842.75;4852167;29;20567;-77
2021/04/16 03:21:29;;;;;;;0.50;0.50;;;;;;;3.12;57.28;101858.91;4840641;29;20041;-76
2021/04/16 03:24:00;;;;;;;0.47;0.47;;;;;;;3.12;56.86;101856.22;4841028;29;20400;-75
2021/04/16 03:26:26;;;;;;;0.40;0.40;;;;;;;3.08;58.10;101852.19;4821775;29;20158;-75
2021/04/16 03:28:57;;;;;;;0.40;0.30;;;;;;;3.04;57.55;101861.66;4829899;29;20490;-77
2021/04/16 03:31:27;;;;;;;0.93;0.40;;;;;;;2.96;57.17;101854.47;4844545;29;20078;-76
2021/04/16 03:33:53;;;;;;;0.50;0.50;;;;;;;2.99;57.87;101861.38;4822706;29;20028;-76
2021/04/16 03:36:22;;;;;;;0.50;0.50;;;;;;;2.85;58.40;101847.63;4826249;29;20030;-76
2021/04/16 03:38:48;;;;;;;1.98;0.40;;;;;;;2.84;58.03;101855.91;4812440;29;20029;-76
2021/04/16 03:41:24;;;;;;;0.40;0.40;;;;;;;2.83;58.22;101849.66;4835886;29;20026;-76
2021/04/16 03:43:50;;;;;;;0.68;0.50;;;;;;;2.75;58.60;101847.03;4844445;29;20561;-77
2021/04/16 03:46:15;;;;;;;0.43;0.32;;;;;;;2.68;57.73;101840.66;4824307;29;20049;-76
2021/04/16 03:48:50;;;;;;;0.40;0.40;;;;;;;2.69;58.01;101837.78;4840984;29;20034;-76
2021/04/16 03:51:19;;;;;;;0.53;0.53;;;;;;;2.65;58.85;101841.84;4835695;29;20101;-76
2021/04/16 03:53:52;;;;;;;0.25;0.25;;;;;;;2.61;59.02;101833.28;4840847;29;20801;-75
2021/04/16 03:56:20;;;;;;;0.47;0.30;;;;;;;2.69;58.65;101845.06;4829006;29;20125;-76
2021/04/16 03:58:48;;;;;;;0.20;0.20;;;;;;;2.66;58.84;101834.59;4816768;29;20082;-76
2021/04/16 04:01:17;;;;;;;0.35;0.35;;;;;;;2.61;58.42;101835.97;4820030;29;20038;-75
2021/04/16 04:03:46;;;;;;;0.38;0.38;;;;;;;2.68;58.91;101846.06;4821998;29;20038;-76
2021/04/16 04:06:14;;;;;;;0.73;0.30;;;;;;;2.60;59.19;101839.69;4827577;29;20026;-76
2021/04/16 04:08:40;;;;;;;0.43;0.43;;;;;;;2.65;58.11;101851.81;4817833;29;20041;-77
2021/04/16 04:11:07;;;;;;;0.40;0.40;;;;;;;2.53;59.63;101833.31;4816543;29;20035;-75
2021/04/16 04:13:38;;;;;;;0.28;0.28;;;;;;;2.58;59.41;101843.59;4807350;29;20455;-75
2021/04/16 04:16:23;;;;;;;0.38;0.38;;;;;;;2.52;58.88;101842.44;4829609;29;20090;-75
2021/04/16 04:18:49;;;;;;;;;;;;;;;2.54;59.76;101847.66;4825878;29;20045;-75
2021/04/16 04:21:14;;;;;;;1.43;0.37;;;;;;;2.48;59.52;101843.81;4829373;29;19921;-75
2021/04/16 04:23:40;;;;;;;0.55;0.55;;;;;;;2.43;59.92;101854.31;4821820;29;20709;-75
2021/04/16 04:26:05;;;;;;;0.60;0.60;;;;;;;2.39;59.20;101850.28;4818541;29;20035;-76
2021/04/16 04:28:31;;;;;;;4.70;0.70;;;;;;;2.38;59.86;101845.88;4816432;29;20083;-74
2021/04/16 04:30:56;;;;;;;0.45;0.45;;;;;;;2.34;60.01;101833.78;4819796;29;20079;-76
2021/04/16 04:33:22;;;;;;;0.68;0.68;;;;;;;2.30;59.92;101837.84;4813602;29;20034;-75
2021/04/16 04:35:47;;;;;;;1.15;0.50;;;;;;;2.33;59.32;101838.31;4821481;29;20106;-75
2021/04/16 04:38:13;;;;;;;0.80;0.80;;;;;;;2.32;60.02;101841.19;4824192;29;20470;-75
2021/04/16 04:40:38;;;;;;;1.60;1.30;;;;;;;2.21;60.54;101823.56;4819366;29;20125;-75
2021/04/16 04:43:05;;;;;;;0.77;0.77;;;;;;;2.27;60.64;101839.03;4822571;29;20103;-76
2021/04/16 04:45:30;;;;;;;0.60;0.45;;;;;;;2.26;60.61;101838.19;4820061;29;20028;-76
2021/04/16 04:47:57;;;;;;;0.63;0.63;;;;;;;2.26;60.95;101835.50;4815749;29;20034;-76
2021/04/16 04:50:26;;;;;;;0.63;0.63;;;;;;;2.18;60.37;101830.13;4820385;29;20049;-75
2021/04/16 04:52:56;;;;;;;0.90;0.90;;;;;;;2.20;60.73;101835.34;4824756;29;20026;-76
2021/04/16 04:55:28;;;;;;;0.73;0.73;;;;;;;2.17;60.94;101833.84;4829187;29;20346;-76
2021/04/16 04:57:54;;;;;;;1.05;0.40;;;;;;;2.17;61.57;101850.03;4839880;29;20045;-76
2021/04/16 05:00:20;;;;;;;1.00;0.90;;;;;;;2.13;61.07;101843.28;4816168;29;20034;-76
2021/04/16 05:02:46;;;;;;;0.65;0.65;;;;;;;2.12;62.27;101838.94;4806659;29;20391;-76
2021/04/16 05:05:15;;;;;;;1.88;0.88;;;;;;;1.99;61.81;101830.56;4829020;29;20388;-74
2021/04/16 05:07:40;;;;;;;0.52;0.52;;;;;;;2.03;62.11;101832.72;4824544;29;20086;-74
2021/04/16 05:10:07;;;;;;;1.02;1.02;;;;;;;2.00;62.16;101832.22;4815132;29;20034;-75
2021/04/16 05:12:34;;;;;;;1.00;1.00;;;;;;;2.02;62.71;101830.22;4833465;29;20034;-75
2021/04/16 05:14:59;;;;;;;1.20;1.17;;;;;;;1.98;62.63;101826.19;4823255;29;20465;-78
2021/04/16 05:17:25;;;;;;;1.10;1.00;;;;;;;2.08;61.91;101845.69;4827438;29;20116;-78
2021/04/16 05:19:52;;;;;;;0.85;0.85;;;;;;;2.10;62.92;101843.66;4819857;29;20038;-77
2021/04/16 05:22:18;;;;;;;1.55;1.45;;;;;;;2.05;62.46;101832.56;4821614;29;20058;-77
2021/04/16 05:24:46;;;;;;;1.75;1.65;;;;;;;2.10;62.79;101832.84;4843438;29;20706;-78
2021/04/16 05:27:14;;;;;;;3.60;1.58;;;;;;;2.13;63.04;101840.59;4840993;29;20034;-77
2021/04/16 05:29:40;;;;;;;1.77;1.67;;;;;;;2.18;63.85;101846.31;4828961;29;20033;-77
2021/04/16 05:32:11;;;;;;;7.18;1.90;;;;;;;2.15;63.47;101829.66;4823621;29;20144;-75
2021/04/16 05:34:39;;;;;;;1.83;1.73;;;;;;;2.18;64.21;101837.41;4817189;29;20404;-77
2021/04/16 05:37:04;;;;;;;1.48;1.38;;;;;;;2.29;63.28;101844.25;4849013;29;20037;-77
2021/04/16 05:39:30;;;;;;;1.77;1.67;;;;;;;2.29;63.19;101842.38;4846003;29;20038;-77
2021/04/16 05:41:55;;;;;;;1.50;1.40;;;;;;;2.32;63.70;101841.19;4858149;29;20156;-76
2021/04/16 05:44:21;;;;;;;1.50;1.40;;;;;;;2.34;63.11;101844.59;4853377;29;20034;-76
2021/04/16 05:46:46;;;;;;;1.88;1.30;;;;;;;2.37;64.30;101838.81;4830205;29;20098;-76
2021/04/16 05:49:12;;;;;;;1.20;1.20;;;;;;;2.36;63.40;101832.56;4842625;29;20034;-76
2021/04/16 05:51:38;;;;;;;1.60;1.50;;;;;;;2.49;62.88;101852.75;4843888;29;20089;-76
2021/04/16 05:54:05;;;;;;;1.60;1.50;;;;;;;2.50;63.26;101852.59;4835882;29;20026;-72
2021/04/16 05:56:30;;;;;;;1.60;1.50;;;;;;;2.49;63.59;101852.75;4835767;29;20536;-71
2021/04/16 05:58:56;;;;;;;1.02;0.90;;;;;;;2.55;63.25;101860.97;4827515;29;20074;-73
2021/04/16 06:01:21;;;;;;;1.08;1.02;;;;;;;2.57;63.36;101858.97;4827532;29;20473;-75
2021/04/16 06:03:49;;;;;;;1.00;0.85;;;;;;;2.58;64.04;101855.22;4847299;29;20417;-74
2021/04/16 06:06:15;;;;;;;0.68;0.65;;;;;;;2.55;63.11;101852.88;4831438;29;20108;-74
2021/04/16 06:08:42;;;;;;;1.05;0.65;;;;;;;2.65;63.75;101860.75;4827457;29;20069;-72
2021/04/16 06:11:10;;;;;;;0.80;0.80;;;;;;;2.70;63.80;101871.03;4826262;29;20048;-74
2021/04/16 06:13:38;;;;;;;0.75;0.75;;;;;;;2.70;63.10;101858.38;4818823;29;20473;-74
2021/04/16 06:16:05;;;;;;;0.70;0.70;;;;;;;2.75;63.21;101874.06;4854401;29;20022;-74
2021/04/16 06:18:30;;;;;;;1.40;1.30;;;;;;;2.79;63.21;101870.81;4851244;29;20033;-75
2021/04/16 06:20:56;;;;;;;1.48;1.48;;;;;;;2.80;62.69;101868.94;4834907;29;20405;-74
2021/04/16 06:23:22;;;;;;;1.98;1.88;;;;;;;2.92;62.55;101881.03;4827687;29;20026;-74
2021/04/16 06:25:50;;;;;;;1.15;1.15;;;;;;;2.97;63.80;101883.19;4859167;29;20387;-74
2021/04/16 06:28:16;;;;;;;1.88;1.77;;;;;;;3.03;62.86;101882.47;4834120;29;20043;-74
2021/04/16 06:30:43;;;;;;;1.35;1.35;;;;;;;3.13;63.58;101882.22;4854622;29;20067;-74
2021/04/16 06:33:21;;;;;;;1.20;1.10;;;;;;;3.22;62.74;101886.53;4853904;29;20798;-74
2021/04/16 06:35:53;;;;;;;1.40;1.35;;;;;;;3.32;62.43;101887.13;4824205;29;20073;-73
2021/04/16 06:38:21;;;;;;;1.63;1.52;;;;;;;3.42;62.35;101873.34;4843014;29;20063;-73
2021/04/16 06:40:49;;;;;;;1.73;1.63;;;;;;;3.56;63.26;101877.09;4820376;29;20053;-73
2021/04/16 06:43:17;;;;;;;2.95;1.80;;;;;;;3.69;62.78;101881.88;4839784;29;20125;-74
2021/04/16 06:45:44;;;;;;;1.85;1.75;;;;;;;3.78;62.82;101880.78;4835333;29;20033;-74
2021/04/16 06:48:10;;;;;;;1.40;1.30;;;;;;;3.88;63.32;101880.50;4840564;29;20170;-74
2021/04/16 06:50:39;;;;;;;1.80;1.70;;;;;;;4.05;62.83;101880.34;4839886;29;20087;-72
2021/04/16 06:53:21;;;;;;;2.60;2.40;;;;;;;4.17;62.86;101884.25;4838735;29;20102;-75
2021/04/16 06:55:59;;;;;;;2.22;2.13;;;;;;;4.31;63.13;101886.09;4845285;29;20818;-75
2021/04/16 06:58:30;;;;;;;2.75;2.58;;;;;;;4.43;62.96;101889.16;4824900;29;20392;-75
2021/04/16 07:01:06;;;;;;;1.95;1.85;;;;;;;4.57;62.72;101889.31;4849394;29;21001;-74
2021/04/16 07:03:36;;;;;;;3.70;1.75;;;;;;;4.68;62.48;101883.41;4827621;29;20096;-76
2021/04/16 07:06:07;;;;;;;4.22;2.60;;;;;;;4.77;62.09;101878.72;4853083;29;20026;-74
2021/04/16 07:08:51;;;;;;;2.17;1.80;;;;;;;4.85;61.96;101865.06;4850445;29;20025;-77
2021/04/16 07:11:29;;;;;;;1.85;1.73;;;;;;;5.01;61.66;101881.06;4825134;29;20034;-73
2021/04/16 07:14:00;;;;;;;2.05;1.90;;;;;;;5.10;62.02;101875.53;4839497;29;20037;-75
2021/04/16 07:16:26;;;;;;;13.13;2.53;;;;;;;5.12;61.84;101870.72;4842820;29;20037;-73
2021/04/16 07:18:58;;;;;;;2.47;2.28;;;;;;;5.19;62.55;101888.72;4843755;29;20120;-76
2021/04/16 07:21:33;;;;;;;;;;;;;;;;;;;;;
2021/04/16 07:24:03;;;;;;;2.05;1.95;;;;;;;5.41;62.31;101881.41;4818262;29;20067;-74
2021/04/16 07:26:38;;;;;;;2.70;2.58;;;;;;;5.55;61.71;101881.53;4824575;29;20374;-74
2021/04/16 07:29:05;;;;;;;2.60;1.98;;;;;;;5.60;61.92;101869.03;4833776;29;20545;-76
2021/04/16 07:31:36;;;;;;;3.25;2.20;;;;;;;5.76;61.97;101881.47;4836692;29;20041;-75
2021/04/16 07:34:13;;;;;;;2.50;2.30;;;;;;;5.86;61.28;101889.28;4841543;29;20078;-74
2021/04/16 07:36:43;;;;;;;2.08;1.98;;;;;;;5.97;61.76;101885.19;4835848;29;20095;-73
2021/04/16 07:39:27;;;;;;;2.03;1.92;;;;;;;6.10;61.41;101885.28;4823990;29;20038;-76
2021/04/16 07:42:14;;;;;;;3.38;2.70;;;;;;;6.19;61.19;101882.38;4841445;29;20029;-74
2021/04/16 07:44:58;;;;;;;2.95;2.00;;;;;;;6.26;61.53;101883.25;4824561;29;20037;-74
2021/04/16 07:47:34;;;;;;;2.60;2.40;;;;;;;6.35;61.61;101887.50;4826183;29;20033;-73
2021/04/16 07:50:30;;;;;;;2.95;2.03;;;;;;;6.53;61.26;101899.69;4842543;29;20036;-75
2021/04/16 07:52:55;;;;;;;2.42;2.33;;;;;;;6.54;61.39;101895.91;4840332;29;20111;-75
2021/04/16 07:55:25;;;;;;;1.50;1.40;;;;;;;6.63;60.98;101887.38;4828550;29;20080;-74
2021/04/16 07:57:51;;;;;;;2.13;2.03;;;;;;;6.72;60.94;101893.47;4836700;29;20041;-75
2021/04/16 08:00:22;;;;;;;2.33;2.13;;;;;;;6.88;60.87;101899.56;4841454;29;20034;-74
2021/04/16 08:03:23;;;;;;;3.40;2.50;;;;;;;7.01;60.55;101896.91;4841965;29;20477;-74
2021/04/16 08:05:57;;;;;;;3.20;2.38;;;;;;;7.12;60.18;101893.56;4837605;29;20032;-74
2021/04/16 08:08:29;;;;;;;2.00;1.90;;;;;;;7.21;59.98;101890.66;4830959;29;20026;-74
2021/04/16 08:11:24;;;;;;;2.03;1.92;;;;;;;7.38;59.97;101886.47;4826835;29;20037;-72
2021/04/16 08:13:50;;;;;;;2.55;1.92;;;;;;;7.59;60.33;101903.66;4841000;29;20034;-74
2021/04/16 08:16:17;;;;;;;2.00;1.90;;;;;;;7.73;59.30;101902.59;4820946;29;20110;-74
2021/04/16 08:19:18;;;;;;;2.42;2.22;;;;;;;7.94;59.69;101900.69;4839044;29;20022;-75
2021/04/16 08:21:49;;;;;;;1.05;1.02;;;;;;;8.07;59.29;101889.75;4835913;29;20415;-74
2021/04/16 08:24:30;;;;;;;2.17;1.45;;;;;;;8.32;58.64;101891.78;4838693;29;20355;-73
2021/04/16 08:27:15;;;;;;;2.05;1.80;;;;;;;8.60;59.03;101893.38;4832360;29;20030;-73
2021/04/16 08:29:52;;;;;;;1.83;1.73;;;;;;;8.93;57.70;101879.56;4836783;29;20109;-73
2021/04/16 08:32:36;;;;;;;3.03;1.55;;;;;;;9.65;57.57;101900.22;4830671;29;20038;-74
2021/04/16 08:35:26;;;;;;;1.65;1.52;;;;;;;10.38;57.16;101894.06;4835696;29;20034;-74
2021/04/16 08:37:56;;;;;;;2.70;1.58;;;;;;;11.08;55.98;101891.84;4820298;29;20033;-74
2021/04/16 08:40:33;;;;;;;1.05;0.90;;;;;;;11.88;54.26;101885.03;4836292;29;20679;-72
2021/04/16 08:43:03;;;;;;;0.88;0.60;;;;;;;12.59;52.50;101884.94;4833379;29;20038;-72
2021/04/16 08:45:55;;;;;;;0.95;0.85;;;;;;;13.20;50.95;101884.41;4838981;29;20022;-74
2021/04/16 08:48:30;;;;;;;0.30;0.30;;;;;;;13.97;50.55;101888.38;4837075;29;20026;-72
2021/04/16 08:51:28;;;;;;;3.25;0.52;;;;;;;15.37;48.33;101894.41;4816330;29;20033;-72
2021/04/16 08:54:19;;;;;;;0.50;0.20;;;;;;;16.52;46.58;101904.00;4824393;29;20046;-73
2021/04/16 08:57:01;;;;;;;1.75;0.50;;;;;;;17.60;45.52;101904.19;4824460;29;20054;-75
2021/04/16 08:59:33;;;;;;;0.38;0.30;;;;;;;18.57;44.72;101909.78;4840369;29;20090;-72
2021/04/16 09:02:09;;;;;;;0.47;0.47;;;;;;;19.46;40.53;101904.22;4840763;29;20434;-74
2021/04/16 09:04:45;;;;;;;0.55;0.30;;;;;;;19.96;38.11;101904.09;4841591;29;20041;-74
2021/04/16 09:07:29;;;;;;;0.20;0.13;;;;;;;20.51;36.50;101902.88;4823063;29;20141;-75
2021/04/16 09:10:03;;;;;;;0.20;0.20;;;;;;;20.87;36.04;101906.03;4826718;29;20101;-78
2021/04/16 09:12:38;;;;;;;0.52;0.30;;;;;;;21.25;33.23;101908.78;4824884;29;20306;-76
2021/04/16 09:15:18;;;;;;;0.57;0.30;;;;;;;21.74;33.72;101914.97;4837510;29;21096;-75
2021/04/16 09:17:53;;;;;;;0.38;0.20;;;;;;;22.37;33.88;101909.91;4822072;29;20521;-75
2021/04/16 09:20:35;;;;;;;0.57;0.32;;;;;;;23.12;32.78;101921.63;4842048;29;20030;-73
2021/04/16 09:23:18;;;;;;;0.30;0.30;;;;;;;23.73;31.57;101907.28;4821583;29;20039;-77
2021/04/16 09:25:51;;;;;;;0.10;0.10;;;;;;;24.45;30.13;101916.47;4840892;29;20355;-73
2021/04/16 09:28:28;;;;;;;2.28;0.38;;;;;;;25.13;28.91;101921.72;4844630;29;20036;-76
2021/04/16 09:31:21;;;;;;;0.32;0.28;;;;;;;26.13;27.62;101916.09;4841680;29;20041;-77
2021/04/16 09:34:16;;;;;;;0.05;0.00;;;;;;;27.13;27.35;101898.78;4837683;29;20120;-78
2021/04/16 09:37:00;;;;;;;0.20;0.20;;;;;;;27.81;27.03;101917.31;4828346;29;20037;-75
2021/04/16 09:39:36;;;;;;;1.45;0.28;;;;;;;28.53;23.82;101906.47;4833636;29;20041;-80
2021/04/16 09:42:31;;;;;;;0.20;0.17;;;;;;;28.76;22.90;101907.97;4849153;29;20054;-75
2021/04/16 09:45:02;;;;;;;0.10;0.00;;;;;;;28.84;22.77;101913.47;4854423;29;20013;-75
2021/04/16 09:47:47;;;;;;;0.40;0.20;;;;;;;28.46;21.12;101913.84;4860377;29;20034;-77
2021/04/16 09:50:25;;;;;;;0.10;0.10;;;;;;;27.86;21.45;101920.72;4859179;29;20113;-77
2021/04/16 09:53:11;;;;;;;0.38;0.10;;;;;;;26.99;21.58;101927.97;4858862;29;20030;-76
2021/04/16 09:55:57;;;;;;;0.30;0.10;;;;;;;26.54;22.58;101919.34;4855069;29;20046;-76
2021/04/16 09:58:35;;;;;;;1.75;0.30;;;;;;;26.44;20.95;101920.56;4847243;29;20478;-74
2021/04/16 10:01:10;;;;;;;0.20;0.20;;;;;;;25.57;21.98;101924.50;4841966;29;20396;-76
2021/04/16 10:04:00;;;;;;;0.43;0.30;;;;;;;25.52;21.58;101919.06;4838475;29;20037;-78
2021/04/16 10:06:48;;;;;;;0.50;0.20;;;;;;;24.72;22.70;101909.00;4836917;29;20048;-74
2021/04/16 10:09:16;;;;;;;0.32;0.20;;;;;;;24.43;22.96;101913.19;4838844;29;20022;-76
2021/04/16 10:11:55;;;;;;;1.08;0.20;;;;;;;24.50;24.15;101902.38;4819328;29;20029;-76
2021/04/16 10:14:44;;;;;;;0.05;0.05;;;;;;;25.90;24.30;101918.31;4825945;29;20036;-76
2021/04/16 10:17:15;;;;;;;0.20;0.13;;;;;;;27.00;23.29;101924.00;4818353;29;20040;-78
2021/04/16 10:20:14;;;;;;;2.50;0.40;;;;;;;26.81;20.49;101892.81;4838910;29;20034;-80
2021/04/16 10:23:06;;;;;;;0.25;0.10;;;;;;;25.83;20.47;101902.03;4836474;29;20033;-78
2021/04/16 12:40:27;;;;;;;0.10;0.10;;;;;;;24.88;18.27;101809.47;4827592;29;20048;-77
2021/04/16 12:42:57;;;;;;;0.15;0.15;;;;;;;27.18;17.29;101814.38;4843251;29;20469;-77
2021/04/16 12:45:24;;;;;;;0.88;0.10;;;;;;;27.97;15.98;101807.81;4827057;29;20033;-77
2021/04/16 12:47:57;;;;;;;0.10;0.10;;;;;;;27.72;15.99;101801.38;4827606;29;20033;-76
2021/04/16 12:50:24;;;;;;;0.00;0.00;;;;;;;28.85;16.38;101812.94;4824607;29;20030;-77
2021/04/16 12:52:49;;;;;;;0.20;0.20;;;;;;;30.71;15.16;101823.63;4847514;29;20034;-76
2021/04/16 12:55:15;;;;;;;0.30;0.20;;;;;;;32.47;14.94;101821.06;4830564;29;20044;-77
2021/04/16 12:57:45;;;;;;;0.15;0.10;;;;;;;34.20;14.59;101821.97;4829690;29;20489;-77
2021/04/16 13:00:39;;;;;;;0.10;0.00;;;;;;;35.76;12.56;101818.41;4825537;29;20038;-78
2021/04/16 13:03:29;;;;;;;0.10;0.10;;;;;;;36.26;12.12;101809.00;4832387;29;20537;-75
2021/04/16 13:05:57;;;;;;;0.10;0.00;;;;;;;35.50;11.58;101817.63;4858872;29;20041;-79
2021/04/16 13:08:28;;;;;;;0.52;0.13;;;;;;;33.88;11.18;101806.41;4846903;29;20037;-77
2021/04/16 13:10:54;;;;;;;0.10;0.10;;;;;;;32.29;11.67;101803.03;4841005;29;20034;-76
2021/04/16 13:13:26;;;;;;;2.10;0.20;;;;;;;30.79;12.35;101786.69;4868098;29;20070;-76
2021/04/16 13:15:55;;;;;;;0.15;0.10;;;;;;;29.18;12.87;101772.41;4865013;29;20180;-74
2021/04/16 13:18:36;;;;;;;0.30;0.30;;;;;;;27.94;14.03;101791.66;4848947;29;20034;-74
2021/04/16 13:21:06;;;;;;;0.40;0.20;;;;;;;26.95;14.62;101789.47;4834822;29;20038;-76
2021/04/16 13:23:31;;;;;;;0.35;0.30;;;;;;;26.42;15.20;101772.28;4851706;29;20040;-76
2021/04/16 13:26:07;;;;;;;;;;;;;;;;;;;;;
2021/04/16 13:28:33;;;;;;;0.60;0.40;;;;;;;27.58;15.24;101780.03;4850677;29;20030;-78
2021/04/16 13:31:04;;;;;;;0.30;0.20;;;;;;;27.03;14.90;101767.28;4844709;29;20092;-77
2021/04/16 13:33:34;;;;;;;0.32;0.10;;;;;;;26.17;14.91;101771.31;4850997;29;20065;-76
2021/04/16 13:36:00;;;;;;;0.40;0.20;;;;;;;25.21;15.46;101764.13;4850137;29;20025;-76
2021/04/16 13:38:32;;;;;;;0.30;0.20;;;;;;;24.53;16.49;101772.25;4836553;29;20038;-77
2021/04/16 13:41:00;;;;;;;0.30;0.20;;;;;;;25.21;18.33;101771.72;4826491;29;20116;-78
2021/04/16 13:43:28;;;;;;;0.47;0.30;;;;;;;27.58;17.64;101768.81;4854852;29;20044;-77
2021/04/16 13:45:54;;;;;;;0.30;0.20;;;;;;;28.24;15.64;101764.13;4824386;29;20025;-77
2021/04/16 13:48:20;;;;;;;0.30;0.20;;;;;;;27.67;15.09;101754.66;4835406;29;20046;-76
2021/04/16 13:50:49;;;;;;;0.20;0.20;;;;;;;26.90;14.77;101761.66;4858244;29;20036;-77
2021/04/16 13:53:15;;;;;;;0.82;0.30;;;;;;;25.91;15.75;101747.03;4843948;29;20053;-77
2021/04/16 13:55:44;;;;;;;0.60;0.30;;;;;;;25.08;16.33;101760.38;4842124;29;20070;-78
2021/04/16 13:58:09;;;;;;;0.20;0.20;;;;;;;24.28;16.94;101754.31;4850262;29;20109;-77
2021/04/16 14:00:39;;;;;;;0.65;0.35;;;;;;;23.76;17.31;101755.84;4838920;29;20550;-77
2021/04/16 14:03:28;;;;;;;0.30;0.20;;;;;;;23.76;18.19;101750.25;4832284;29;20439;-77
2021/04/16 14:05:56;;;;;;;0.20;0.20;;;;;;;24.40;17.98;101741.34;4831813;29;20025;-78
2021/04/16 14:08:59;;;;;;;;;;;;;;;;;;;;;
2021/04/16 14:11:26;;;;;;;0.20;0.20;;;;;;;24.51;17.10;101736.25;4844235;29;20456;-79
2021/04/16 14:13:54;;;;;;;0.25;0.15;;;;;;;24.52;17.47;101737.88;4845007;29;20045;-78